createdAt,value
2022-09-09T00:00:50.196Z,2.78
2022-09-09T00:03:22.646Z,2.90
2022-09-09T00:06:12.255Z,2.35
2022-09-09T00:08:50.625Z,2.00
2022-09-09T00:11:31.302Z,2.25
2022-09-09T00:14:04.451Z,2.17
2022-09-09T00:16:35.600Z,2.10
2022-09-09T00:19:09.195Z,2.00
2022-09-09T00:21:39.821Z,1.90
2022-09-09T00:24:28.948Z,1.48
2022-09-09T00:27:02.155Z,1.80
2022-09-09T00:29:36.975Z,1.63
2022-09-09T00:32:17.237Z,1.40
2022-09-09T00:34:57.082Z,1.65
2022-09-09T00:37:29.164Z,1.52
2022-09-09T00:40:01.196Z,1.42
2022-09-09T00:45:26.300Z,1.60
2022-09-09T00:47:56.502Z,1.60
2022-09-09T00:50:31.148Z,1.33
2022-09-09T00:52:58.782Z,1.98
2022-09-09T00:55:44.589Z,1.77
2022-09-09T00:58:12.367Z,1.85
2022-09-09T01:00:45.781Z,2.10
2022-09-09T01:03:26.542Z,1.70
2022-09-09T01:06:24.810Z,1.50
2022-09-09T01:09:16.913Z,1.70
2022-09-09T01:11:47.362Z,1.60
2022-09-09T01:14:33.428Z,1.90
2022-09-09T01:17:08.562Z,1.60
2022-09-09T01:19:45.799Z,2.00
2022-09-09T01:22:37.416Z,2.80
2022-09-09T01:25:13.874Z,3.58
2022-09-09T01:28:00.934Z,3.63
2022-09-09T01:30:29.206Z,3.22
2022-09-09T01:33:01.340Z,2.85
2022-09-09T01:35:52.651Z,2.50
2022-09-09T01:38:22.302Z,2.95
2022-09-09T01:40:53.353Z,2.60
2022-09-09T01:43:25.881Z,2.50
2022-09-09T01:45:56.911Z,2.30
2022-09-09T01:48:25.843Z,1.80
2022-09-09T01:51:04.208Z,1.58
2022-09-09T01:53:31.932Z,1.90
2022-09-09T01:56:43.305Z,1.50
2022-09-09T01:59:26.793Z,1.35
2022-09-09T02:02:24.202Z,1.50
2022-09-09T02:05:15.628Z,1.50
2022-09-09T02:07:49.306Z,2.00
2022-09-09T02:10:54.760Z,1.40
2022-09-09T02:13:37.454Z,1.55
2022-09-09T02:16:52.261Z,1.60
2022-09-09T02:19:27.422Z,1.58
2022-09-09T02:22:10.184Z,1.38
2022-09-09T02:24:41.017Z,1.63
2022-09-09T02:27:20.296Z,1.60
2022-09-09T02:29:48.473Z,1.70
2022-09-09T02:32:26.388Z,1.42
2022-09-09T02:35:19.138Z,1.45
2022-09-09T02:37:51.022Z,1.35
2022-09-09T02:42:50.958Z,1.57
2022-09-09T02:45:26.107Z,1.70
2022-09-09T02:48:00.008Z,1.20
2022-09-09T02:50:43.274Z,1.80
2022-09-09T02:53:17.059Z,1.90
2022-09-09T02:55:55.726Z,1.60
2022-09-09T02:58:25.184Z,1.83
2022-09-09T03:00:59.006Z,1.65
2022-09-09T03:03:28.143Z,1.20
2022-09-09T03:05:57.913Z,1.42
2022-09-09T03:08:28.251Z,1.52
2022-09-09T03:10:59.223Z,1.80
2022-09-09T03:13:31.066Z,1.50
2022-09-09T03:15:58.335Z,1.70
2022-09-09T03:18:26.143Z,1.60
2022-09-09T03:20:55.352Z,1.60
2022-09-09T03:23:24.108Z,1.58
2022-09-09T03:25:53.013Z,1.90
2022-09-09T03:28:32.294Z,1.60
2022-09-09T03:31:02.847Z,1.40
2022-09-09T03:33:35.259Z,1.60
2022-09-09T03:36:02.768Z,1.95
2022-09-09T03:38:30.515Z,1.77
2022-09-09T03:41:01.382Z,2.55
2022-09-09T03:43:30.210Z,2.10
2022-09-09T03:45:58.110Z,2.03
2022-09-09T03:48:29.298Z,1.80
2022-09-09T03:50:58.983Z,2.47
2022-09-09T03:53:26.746Z,2.20
2022-09-09T03:55:56.586Z,2.03
2022-09-09T03:58:27.837Z,1.95
2022-09-09T04:01:02.886Z,2.10
2022-09-09T04:03:31.359Z,1.85
2022-09-09T04:06:01.041Z,2.00
2022-09-09T04:08:34.238Z,1.60
2022-09-09T04:11:06.017Z,2.08
2022-09-09T04:13:42.664Z,1.85
2022-09-09T04:16:16.667Z,2.28
2022-09-09T04:18:44.875Z,2.13
2022-09-09T04:21:13.527Z,2.05
2022-09-09T04:23:41.903Z,2.22
2022-09-09T04:26:10.200Z,2.40
2022-09-09T04:28:38.985Z,2.20
2022-09-09T04:31:19.704Z,2.00
2022-09-09T04:33:48.467Z,2.17
2022-09-09T04:36:19.497Z,2.40
2022-09-09T04:38:49.850Z,2.08
2022-09-09T04:41:17.633Z,2.20
2022-09-09T04:43:49.588Z,3.05
2022-09-09T04:46:18.493Z,3.17
2022-09-09T04:48:46.374Z,2.70
2022-09-09T04:51:15.289Z,2.50
2022-09-09T04:53:44.592Z,2.40
2022-09-09T04:56:16.412Z,2.90
2022-09-09T04:58:53.284Z,3.00
2022-09-09T05:01:25.573Z,2.83
2022-09-09T05:03:56.287Z,3.45
2022-09-09T05:06:24.404Z,2.97
2022-09-09T05:08:56.344Z,3.63
2022-09-09T05:11:29.167Z,2.78
2022-09-09T05:16:36.634Z,2.42
2022-09-09T05:19:04.328Z,2.42
2022-09-09T05:21:43.108Z,2.20
2022-09-09T05:24:13.221Z,2.63
2022-09-09T05:26:41.078Z,2.45
2022-09-09T05:29:09.758Z,2.17
2022-09-09T05:31:37.834Z,2.20
2022-09-09T05:34:10.170Z,2.30
2022-09-09T05:36:37.865Z,2.10
2022-09-09T05:39:05.377Z,2.15
2022-09-09T05:41:36.676Z,2.13
2022-09-09T05:44:04.702Z,2.10
2022-09-09T05:46:36.407Z,2.30
2022-09-09T05:49:06.553Z,2.10
2022-09-09T05:51:35.507Z,2.17
2022-09-09T05:54:10.379Z,2.45
2022-09-09T05:56:42.585Z,2.33
2022-09-09T05:59:10.784Z,2.25
2022-09-09T06:01:44.594Z,2.15
2022-09-09T06:04:25.907Z,2.15
2022-09-09T06:06:54.051Z,2.17
2022-09-09T06:09:23.899Z,2.60
2022-09-09T06:11:51.247Z,2.80
2022-09-09T06:14:20.339Z,2.60
2022-09-09T06:16:49.507Z,2.60
2022-09-09T06:19:25.416Z,2.65
2022-09-09T06:21:52.826Z,2.28
2022-09-09T06:24:21.050Z,2.55
2022-09-09T06:26:48.575Z,2.13
2022-09-09T06:29:29.151Z,1.75
2022-09-09T06:31:57.387Z,1.92
2022-09-09T06:34:27.118Z,1.88
2022-09-09T06:36:58.671Z,1.98
2022-09-09T06:39:27.330Z,1.73
2022-09-09T06:41:55.603Z,1.40
2022-09-09T06:44:42.004Z,1.20
2022-09-09T06:47:13.723Z,1.48
2022-09-09T06:49:48.178Z,1.50
2022-09-09T06:52:15.977Z,1.35
2022-09-09T06:54:43.720Z,1.67
2022-09-09T06:59:58.414Z,1.70
2022-09-09T07:02:26.126Z,1.23
2022-09-09T07:04:54.412Z,0.95
2022-09-09T07:07:21.744Z,1.15
2022-09-09T07:09:50.213Z,1.63
2022-09-09T07:12:17.662Z,1.45
2022-09-09T07:14:53.771Z,1.38
2022-09-09T07:17:21.074Z,1.50
2022-09-09T07:19:49.212Z,1.33
2022-09-09T07:22:17.732Z,1.20
2022-09-09T07:24:46.794Z,1.55
2022-09-09T07:27:15.841Z,1.30
2022-09-09T07:29:43.895Z,1.45
2022-09-09T07:32:12.033Z,1.30
2022-09-09T07:34:39.537Z,1.38
2022-09-09T07:37:07.489Z,1.48
2022-09-09T07:39:35.941Z,1.67
2022-09-09T07:42:03.462Z,1.60
2022-09-09T07:44:30.989Z,1.45
2022-09-09T07:47:11.896Z,1.27
2022-09-09T07:49:50.644Z,1.50
2022-09-09T07:52:22.560Z,1.40
2022-09-09T07:54:54.901Z,1.80
2022-09-09T07:57:22.579Z,1.58
2022-09-09T07:59:51.601Z,1.15
2022-09-09T08:02:19.112Z,1.50
2022-09-09T08:04:47.335Z,1.65
2022-09-09T08:07:18.764Z,1.52
2022-09-09T08:09:51.510Z,1.30
2022-09-09T08:12:24.300Z,1.58
2022-09-09T08:14:55.429Z,1.40
2022-09-09T08:17:23.644Z,1.30
2022-09-09T08:19:51.484Z,2.05
2022-09-09T08:22:23.307Z,1.48
2022-09-09T08:24:51.406Z,1.40
2022-09-09T08:27:19.974Z,1.85
2022-09-09T08:29:47.477Z,1.30
2022-09-09T08:32:15.400Z,1.50
2022-09-09T08:34:46.587Z,1.15
2022-09-09T08:37:18.046Z,1.60
2022-09-09T08:39:45.502Z,1.75
2022-09-09T08:42:32.843Z,2.00
2022-09-09T08:45:15.923Z,1.42
2022-09-09T08:47:54.488Z,1.60
2022-09-09T08:50:28.995Z,1.30
2022-09-09T08:53:18.497Z,1.35
2022-09-09T08:55:56.192Z,1.33
2022-09-09T08:58:37.711Z,1.48
2022-09-09T09:01:11.531Z,1.40
2022-09-09T09:04:12.943Z,1.20
2022-09-09T09:07:05.891Z,1.23
2022-09-09T09:09:47.515Z,1.15
2022-09-09T09:12:24.653Z,1.35
2022-09-09T09:14:53.127Z,1.40
2022-09-09T09:17:24.496Z,1.50
2022-09-09T09:19:52.596Z,1.30
2022-09-09T09:22:49.848Z,1.20
2022-09-09T09:25:32.477Z,1.27
2022-09-09T09:28:11.857Z,1.23
2022-09-09T09:30:47.323Z,1.67
2022-09-09T09:33:28.071Z,1.70
2022-09-09T09:35:55.930Z,1.60
2022-09-09T09:41:13.899Z,1.50
2022-09-09T09:43:43.627Z,1.60
2022-09-09T09:46:24.832Z,1.52
2022-09-09T09:49:06.788Z,1.35
2022-09-09T09:54:16.092Z,1.85
2022-09-09T09:56:48.749Z,1.48
2022-09-09T09:59:39.146Z,1.65
2022-09-09T10:02:18.054Z,1.27
2022-09-09T10:04:48.429Z,1.50
2022-09-09T10:07:21.564Z,1.50
2022-09-09T10:09:58.078Z,1.98
2022-09-09T10:12:50.842Z,2.20
2022-09-09T10:15:27.186Z,1.52
2022-09-09T10:18:29.508Z,1.70
2022-09-09T10:21:14.242Z,1.40
2022-09-09T10:24:24.187Z,2.10
2022-09-09T10:27:13.720Z,1.77
2022-09-09T10:29:47.006Z,1.80
2022-09-09T10:32:38.331Z,2.05
2022-09-09T10:35:16.553Z,1.50
2022-09-09T10:38:03.202Z,1.58
2022-09-09T10:40:39.138Z,1.60
2022-09-09T10:43:09.457Z,1.50
2022-09-09T10:45:49.543Z,1.08
2022-09-09T10:48:30.031Z,1.10
2022-09-09T10:51:20.351Z,1.20
2022-09-09T10:54:00.705Z,1.50
2022-09-09T10:56:30.249Z,1.70
2022-09-09T10:59:13.346Z,1.30
2022-09-09T11:01:58.406Z,1.58
2022-09-09T11:04:58.139Z,1.25
2022-09-09T11:07:40.502Z,1.38
2022-09-09T11:10:34.147Z,1.05
2022-09-09T11:13:07.030Z,0.80
2022-09-09T11:15:44.439Z,1.00
2022-09-09T11:18:22.643Z,1.27
2022-09-09T11:20:56.826Z,1.15
2022-09-09T11:23:33.369Z,1.08
2022-09-09T11:26:08.454Z,1.08
2022-09-09T11:28:52.219Z,1.00
2022-09-09T11:31:38.222Z,1.30
2022-09-09T11:34:27.177Z,2.08
2022-09-09T11:37:49.293Z,2.00
2022-09-09T11:40:20.194Z,2.53
2022-09-09T11:42:50.848Z,1.23
2022-09-09T11:45:32.238Z,0.90
2022-09-09T11:48:01.733Z,0.80
2022-09-09T11:50:39.013Z,0.80
2022-09-09T11:53:23.733Z,0.80
2022-09-09T11:56:14.647Z,0.70
2022-09-09T11:58:46.775Z,0.85
2022-09-09T12:01:34.456Z,0.80
2022-09-09T12:04:13.351Z,0.98
2022-09-09T12:06:54.140Z,0.90
2022-09-09T12:09:28.675Z,0.77
2022-09-09T12:12:14.494Z,0.60
2022-09-09T12:14:42.129Z,0.68
2022-09-09T12:17:31.666Z,0.88
2022-09-09T12:20:32.408Z,0.75
2022-09-09T12:23:06.287Z,0.77
2022-09-09T12:25:51.781Z,0.70
2022-09-09T12:28:23.525Z,0.90
2022-09-09T12:31:19.140Z,0.80
2022-09-09T12:33:48.481Z,0.60
2022-09-09T12:36:20.806Z,0.80
2022-09-09T12:38:49.161Z,0.68
2022-09-09T12:41:23.978Z,0.65
2022-09-09T12:43:52.353Z,0.80
2022-09-09T12:46:37.668Z,0.50
2022-09-09T12:49:05.570Z,0.50
2022-09-09T12:51:34.319Z,0.40
2022-09-09T12:54:01.862Z,0.38
2022-09-09T12:56:32.257Z,0.50
2022-09-09T12:59:01.935Z,0.50
2022-09-09T13:01:31.998Z,0.60
2022-09-09T13:04:00.367Z,0.60
2022-09-09T13:06:30.062Z,0.60
2022-09-09T13:09:00.332Z,0.40
2022-09-09T13:11:34.039Z,0.60
2022-09-09T13:14:02.199Z,0.50
2022-09-09T13:16:33.388Z,0.60
2022-09-09T13:19:16.876Z,0.70
2022-09-09T13:21:44.191Z,0.50
2022-09-09T13:24:33.491Z,0.68
2022-09-09T13:27:26.719Z,0.65
2022-09-09T13:29:56.877Z,0.63
2022-09-09T13:32:27.860Z,0.70
2022-09-09T13:35:01.135Z,0.63
2022-09-09T13:37:37.788Z,0.65
2022-09-09T13:40:19.470Z,1.00
2022-09-09T13:42:46.904Z,0.98
2022-09-09T13:45:23.439Z,0.85
2022-09-09T13:47:56.327Z,0.80
2022-09-09T13:50:26.227Z,1.00
2022-09-09T13:52:55.707Z,1.10
2022-09-09T13:55:24.770Z,0.90
2022-09-09T13:57:57.032Z,1.15
2022-09-09T14:00:25.393Z,1.10
2022-09-09T14:02:52.943Z,0.80
2022-09-09T14:05:20.691Z,1.00
2022-09-09T14:07:51.315Z,1.17
2022-09-09T14:10:20.846Z,0.80
2022-09-09T14:12:48.133Z,0.82
2022-09-09T14:15:15.638Z,1.00
2022-09-09T14:17:43.393Z,0.90
2022-09-09T14:20:12.857Z,0.80
2022-09-09T14:22:42.646Z,1.00
2022-09-09T14:25:10.002Z,0.70
2022-09-09T14:27:37.350Z,1.08
2022-09-09T14:30:05.680Z,0.70
2022-09-09T14:32:33.984Z,0.68
2022-09-09T14:35:01.271Z,1.10
2022-09-09T14:37:31.494Z,0.90
2022-09-09T14:39:59.083Z,0.85
2022-09-09T14:42:27.718Z,0.60
2022-09-09T14:44:55.022Z,0.80
2022-09-09T14:47:23.055Z,0.60
2022-09-09T14:49:50.855Z,0.80
2022-09-09T14:52:18.408Z,0.88
2022-09-09T14:54:45.678Z,0.90
2022-09-09T14:57:12.910Z,0.90
2022-09-09T14:59:41.570Z,0.80
2022-09-09T15:02:10.123Z,1.08
2022-09-09T15:04:37.511Z,0.63
2022-09-09T15:07:04.884Z,0.85
2022-09-09T15:09:33.147Z,0.90
2022-09-09T15:12:01.773Z,0.70
2022-09-09T15:14:29.081Z,1.10
2022-09-09T15:16:56.401Z,0.82
2022-09-09T15:19:23.670Z,0.80
2022-09-09T15:21:50.964Z,0.90
2022-09-09T15:24:18.244Z,0.85
2022-09-09T15:26:46.522Z,0.80
2022-09-09T15:29:13.833Z,0.70
2022-09-09T15:31:41.311Z,0.60
2022-09-09T15:34:08.837Z,0.88
2022-09-09T15:36:38.833Z,0.70
2022-09-09T15:39:09.308Z,0.98
2022-09-09T15:41:36.798Z,0.70
2022-09-09T15:44:04.074Z,0.60
2022-09-09T15:46:40.129Z,0.98
2022-09-09T15:49:16.141Z,0.70
2022-09-09T15:51:45.609Z,0.82
2022-09-09T15:54:19.020Z,1.00
2022-09-09T15:56:49.738Z,0.80
2022-09-09T15:59:17.089Z,0.77
2022-09-09T16:01:44.963Z,0.80
2022-09-09T16:04:13.123Z,0.70
2022-09-09T16:06:40.572Z,0.90
2022-09-09T16:09:09.153Z,0.90
2022-09-09T16:11:38.622Z,0.90
2022-09-09T16:14:07.650Z,0.85
2022-09-09T16:16:36.230Z,0.80
2022-09-09T16:19:10.444Z,0.85
2022-09-09T16:21:41.299Z,0.85
2022-09-09T16:24:11.173Z,0.80
2022-09-09T16:26:40.530Z,1.00
2022-09-09T16:29:07.854Z,1.00
2022-09-09T16:31:35.530Z,0.98
2022-09-09T16:34:04.462Z,1.10
2022-09-09T16:36:35.155Z,1.00
2022-09-09T16:39:06.245Z,1.00
2022-09-09T16:41:34.538Z,0.90
2022-09-09T16:44:05.223Z,0.90
2022-09-09T16:46:35.941Z,0.80
2022-09-09T16:49:05.887Z,0.65
2022-09-09T16:51:36.387Z,0.90
2022-09-09T16:54:08.614Z,1.15
2022-09-09T16:56:44.431Z,0.75
2022-09-09T16:59:19.728Z,0.77
2022-09-09T17:01:49.688Z,0.70
2022-09-09T17:04:26.561Z,0.80
2022-09-09T17:06:55.513Z,0.73
2022-09-09T17:09:24.279Z,0.57
2022-09-09T17:11:55.807Z,0.70
2022-09-09T17:14:24.731Z,0.85
2022-09-09T17:19:22.311Z,0.80
2022-09-09T17:22:14.991Z,0.80
2022-09-09T17:24:39.970Z,1.40
2022-09-09T17:27:08.011Z,0.88
2022-09-09T17:29:36.878Z,0.60
2022-09-09T17:32:06.335Z,0.85
2022-09-09T17:34:35.001Z,1.10
2022-09-09T17:37:02.336Z,0.60
2022-09-09T17:39:29.901Z,0.80
2022-09-09T17:41:57.188Z,0.70
2022-09-09T17:44:24.580Z,0.95
2022-09-09T17:46:52.030Z,0.85
2022-09-09T17:49:19.444Z,0.80
2022-09-09T17:51:47.108Z,0.85
2022-09-09T17:54:18.035Z,0.77
2022-09-09T17:56:46.707Z,1.15
2022-09-09T17:59:15.926Z,0.75
2022-09-09T18:01:46.379Z,0.70
2022-09-09T18:04:15.664Z,0.90
2022-09-09T18:06:46.029Z,0.90
2022-09-09T18:09:16.993Z,1.15
2022-09-09T18:11:46.575Z,0.77
2022-09-09T18:14:32.787Z,0.90
2022-09-09T18:17:02.022Z,1.10
2022-09-09T18:19:31.130Z,1.10
2022-09-09T18:22:01.940Z,0.93
2022-09-09T18:24:31.052Z,1.02
2022-09-09T18:26:58.824Z,1.10
2022-09-09T18:29:26.351Z,1.17
2022-09-09T18:31:55.224Z,1.48
2022-09-09T18:34:25.586Z,1.55
2022-09-09T18:36:55.077Z,1.63
2022-09-09T18:39:25.786Z,2.08
2022-09-09T18:41:55.948Z,1.88
2022-09-09T18:44:26.678Z,1.98
2022-09-09T18:46:54.448Z,2.15
2022-09-09T18:49:24.458Z,2.00
2022-09-09T18:51:52.330Z,2.05
2022-09-09T18:54:22.935Z,1.98
2022-09-09T18:56:51.479Z,1.70
2022-09-09T18:59:22.922Z,1.67
2022-09-09T19:01:52.243Z,1.83
2022-09-09T19:04:21.873Z,1.85
2022-09-09T19:06:50.318Z,1.88
2022-09-09T19:09:18.883Z,1.55
2022-09-09T19:11:47.011Z,1.33
2022-09-09T19:14:16.738Z,1.50
2022-09-09T19:16:45.471Z,1.60
2022-09-09T19:19:22.559Z,1.67
2022-09-09T19:21:51.583Z,1.35
2022-09-09T19:24:23.124Z,1.63
2022-09-09T19:26:52.919Z,1.58
2022-09-09T19:29:23.666Z,1.40
2022-09-09T19:32:36.532Z,1.55
2022-09-09T19:34:40.937Z,1.60
2022-09-09T19:37:08.511Z,1.30
2022-09-09T19:39:35.918Z,1.50
2022-09-09T19:42:03.634Z,1.42
2022-09-09T19:44:31.079Z,1.35
2022-09-09T19:46:59.613Z,1.50
2022-09-09T19:49:27.041Z,1.50
2022-09-09T19:51:56.026Z,1.40
2022-09-09T19:54:23.509Z,1.30
2022-09-09T19:56:54.120Z,1.25
2022-09-09T19:59:21.471Z,1.85
2022-09-09T20:01:49.300Z,1.50
2022-09-09T20:04:17.790Z,1.13
2022-09-09T20:06:45.732Z,1.35
2022-09-09T20:09:16.496Z,1.23
2022-09-09T20:11:45.932Z,1.25
2022-09-09T20:14:16.016Z,1.30
2022-09-09T20:16:43.861Z,1.20
2022-09-09T20:19:12.894Z,1.40
2022-09-09T20:21:47.893Z,1.38
2022-09-09T20:24:18.778Z,1.48
2022-09-09T20:26:48.323Z,1.60
2022-09-09T20:29:18.248Z,1.40
2022-09-09T20:31:46.297Z,1.80
2022-09-09T20:34:19.511Z,1.70
2022-09-09T20:36:47.378Z,1.70
2022-09-09T20:39:17.308Z,1.63
2022-09-09T20:41:46.348Z,1.90
2022-09-09T20:44:19.257Z,1.30
2022-09-09T20:46:48.785Z,1.27
2022-09-09T20:49:19.005Z,1.33
2022-09-09T20:51:48.016Z,1.40
2022-09-09T20:54:21.100Z,1.35
2022-09-09T20:56:48.605Z,1.58
2022-09-09T20:59:23.955Z,1.48
2022-09-09T21:01:53.285Z,1.70
2022-09-09T21:04:21.883Z,1.35
2022-09-09T21:06:51.106Z,1.60
2022-09-09T21:09:19.539Z,1.70
2022-09-09T21:11:47.225Z,1.25
2022-09-09T21:14:15.212Z,1.60
2022-09-09T21:16:43.007Z,1.55
2022-09-09T21:19:10.412Z,1.38
2022-09-09T21:21:37.950Z,1.60
2022-09-09T21:24:05.664Z,1.90
2022-09-09T21:26:36.371Z,3.10
2022-09-09T21:29:03.687Z,2.88
2022-09-09T21:31:31.588Z,2.58
2022-09-09T21:33:59.527Z,2.45
2022-09-09T21:36:28.675Z,2.63
2022-09-09T21:38:59.167Z,2.30
2022-09-09T21:41:27.205Z,2.30
2022-09-09T21:43:55.514Z,2.17
2022-09-09T21:46:24.016Z,2.03
2022-09-09T21:48:51.911Z,2.50
2022-09-09T21:51:19.230Z,2.50
2022-09-09T21:53:46.588Z,2.55
2022-09-09T21:56:17.303Z,2.38
2022-09-09T21:58:46.054Z,2.55
2022-09-09T22:01:16.397Z,2.30
2022-09-09T22:03:45.112Z,2.38
2022-09-09T22:06:15.364Z,1.63
2022-09-09T22:08:43.741Z,2.17
2022-09-09T22:11:17.165Z,2.40
2022-09-09T22:13:48.309Z,1.67
2022-09-09T22:16:20.093Z,1.80
2022-09-09T22:18:56.898Z,1.90
2022-09-09T22:21:26.189Z,2.13
2022-09-09T22:23:59.281Z,1.80
2022-09-09T22:26:28.793Z,2.22
2022-09-09T22:28:57.333Z,2.00
2022-09-09T22:31:25.943Z,2.10
2022-09-09T22:33:53.834Z,1.40
2022-09-09T22:36:21.687Z,1.50
2022-09-09T22:38:50.439Z,1.50
2022-09-09T22:41:18.907Z,1.42
2022-09-09T22:43:46.891Z,1.60
2022-09-09T22:46:14.715Z,1.05
2022-09-09T22:48:42.107Z,1.48
2022-09-09T22:51:12.645Z,1.52
2022-09-09T22:53:41.545Z,1.67
2022-09-09T22:56:14.280Z,1.38
2022-09-09T22:58:41.494Z,1.40
2022-09-09T23:01:16.522Z,1.13
2022-09-09T23:03:47.797Z,1.08
2022-09-09T23:06:22.219Z,1.00
2022-09-09T23:08:56.149Z,1.10
2022-09-09T23:11:29.176Z,1.30
2022-09-09T23:13:58.773Z,1.40
2022-09-09T23:16:27.367Z,1.42
2022-09-09T23:18:57.472Z,1.33
2022-09-09T23:21:28.197Z,2.00
2022-09-09T23:23:57.540Z,1.83
2022-09-09T23:26:26.315Z,2.08
2022-09-09T23:28:55.893Z,2.30
2022-09-09T23:31:24.904Z,2.00
2022-09-09T23:33:54.431Z,1.80
2022-09-09T23:36:24.833Z,1.90
2022-09-09T23:38:54.517Z,2.08
2022-09-09T23:41:22.324Z,2.17
2022-09-09T23:43:52.230Z,1.88
2022-09-09T23:46:27.721Z,1.90
2022-09-09T23:48:57.454Z,2.03
2022-09-09T23:51:28.850Z,2.13
2022-09-09T23:53:58.592Z,2.30
2022-09-09T23:56:29.107Z,2.03
2022-09-09T23:58:56.459Z,1.90
